Data for 11/28/2014

Time Sea-Level Adjusted Pressure Absolute Pressure Temperature Relative Humidity Dew Point   
(mb) (inHg) (mb) (inHg) (C) (F) (%) (C) (F)
00:05 1014 29.94 843 24.89 8.5 47.3 49 -1.6 29.1
00:10 1014 29.94 843 24.89 8.9 47.9 52 -0.4 31.4
00:15 1014 29.94 843 24.89 8.7 47.6 49 -1.4 29.4
00:20 1014 29.94 843 24.89 9.7 49.4 45 -1.8 28.8
00:25 1014 29.94 843 24.89 10 50 46 -1 30.2
00:30 1014 29.94 843 24.89 9.9 49.8 46 -1.2 29.9
00:35 1014 29.94 843 24.89 9.7 49.4 47 -1.1 30
00:40 1014 29.94 843 24.89 9.7 49.5 48 -0.8 30.6
00:45 1014 29.94 843 24.89 9.5 49.1 48 -0.9 30.5
00:50 1013 29.91 843 24.89 9.4 48.9 50 -0.6 31
00:55 1013 29.91 843 24.89 9.2 48.5 49 -0.8 30.5
01:00 1013 29.91 843 24.89 9.2 48.5 50 -0.8 30.6
01:05 1013 29.91 842 24.86 9.2 48.6 48 -1.1 30.1
01:10 1013 29.91 842 24.86 9.1 48.5 49 -0.9 30.4
01:15 1013 29.91 842 24.86 9.1 48.3 50 -0.9 30.4
01:20 1013 29.91 842 24.86 9.2 48.6 46 -1.7 28.9
01:25 1013 29.91 842 24.86 9.8 49.6 45 -1.5 29.3
01:30 1013 29.91 842 24.86 9.9 49.8 44 -1.6 29.1
01:35 1013 29.91 842 24.86 10 50.1 44 -1.6 29.1
01:40 1013 29.91 842 24.86 10 49.9 45 -1.5 29.3
01:45 1013 29.91 842 24.86 9.9 49.7 44 -1.6 29.1
01:50 1013 29.91 842 24.86 9.8 49.6 45 -1.7 29
01:55 1012 29.88 842 24.86 9.6 49.2 45 -1.7 29
02:00 1012 29.88 842 24.86 9.4 48.9 50 -0.4 31.3
02:05 1012 29.88 842 24.86 8.1 46.6 52 -1.2 29.9
02:10 1012 29.88 842 24.86 7.9 46.2 52 -1.4 29.4
02:15 1012 29.88 842 24.86 8.8 47.9 47 -1.8 28.7
02:20 1012 29.88 841 24.83 9.1 48.3 47 -1.6 29.1
02:25 1012 29.88 841 24.83 8.9 48 50 -1.1 30.1
02:30 1012 29.88 841 24.83 8.3 46.9 52 -1 30.1
02:35 1012 29.88 841 24.83 8.1 46.6 48 -2.1 28.2
02:40 1012 29.88 841 24.83 8.5 47.3 47 -2.3 27.9
02:45 1012 29.88 841 24.83 9.1 48.4 45 -2.1 28.2
02:50 1012 29.88 841 24.83 9.2 48.5 42 -2.9 26.8
02:55 1012 29.88 841 24.83 9.7 49.5 40 -3.2 26.2
03:00 1012 29.88 841 24.83 10.2 50.4 37 -3.9 25
03:05 1012 29.88 841 24.83 10.4 50.8 42 -1.9 28.5
03:10 1012 29.88 841 24.83 9.9 49.9 35 -4.6 23.7
03:15 1012 29.88 841 24.83 10.4 50.6 37 -3.6 25.5
03:20 1012 29.88 841 24.83 10.1 50.1 39 -3.3 26
03:25 1012 29.88 841 24.83 9.9 49.9 37 -4.1 24.7
03:30 1012 29.88 841 24.83 10 50.1 42 -2.3 27.9
03:35 1012 29.88 841 24.83 9.7 49.4 39 -3.4 25.8
03:40 1012 29.88 841 24.83 9.9 49.9 37 -4 24.7
03:45 1012 29.88 841 24.83 10.1 50.2 37 -3.9 25
03:50 1012 29.88 841 24.83 9.6 49.3 40 -3.2 26.2
03:55 1012 29.88 841 24.83 9.3 48.8 38 -4.4 24.1
04:00 1012 29.88 841 24.83 10.1 50.2 37 -3.8 25.1
04:05 1012 29.88 841 24.83 9.9 49.7 40 -3.1 26.4
04:10 1012 29.88 841 24.83 9.3 48.8 40 -3.4 25.8
04:15 1012 29.88 841 24.83 9.6 49.2 38 -4.1 24.7
04:20 1011 29.85 841 24.83 9.8 49.7 38 -3.8 25.2
04:25 1011 29.85 841 24.83 9.8 49.6 36 -4.5 23.8
04:30 1011 29.85 840 24.81 10 50.1 37 -4.1 24.6
04:35 1011 29.85 840 24.81 9.8 49.7 39 -3.4 25.9
04:40 1011 29.85 840 24.81 9.6 49.3 36 -4.6 23.8
04:45 1011 29.85 840 24.81 9.8 49.7 36 -4.6 23.8
04:50 1011 29.85 840 24.81 9.9 49.8 37 -4.2 24.5
04:55 1011 29.85 840 24.81 10 49.9 36 -4.5 23.9
05:00 1011 29.85 840 24.81 10 50 35 -4.8 23.4
05:05 1011 29.85 840 24.81 10.2 50.3 36 -4.3 24.3
05:10 1011 29.85 840 24.81 9.9 49.8 40 -3.2 26.2
05:15 1011 29.85 840 24.81 9.5 49.1 36 -4.9 23.2
05:20 1011 29.85 840 24.81 9.8 49.6 38 -3.7 25.3
05:25 1011 29.85 840 24.81 9.6 49.2 37 -4.5 23.9
05:30 1010 29.83 840 24.81 9.9 49.9 36 -4.5 23.9
05:35 1010 29.83 840 24.81 9.7 49.4 37 -4.2 24.4
05:40 1010 29.83 839 24.78 9.4 49 39 -3.9 25
05:45 1010 29.83 839 24.78 9.4 48.9 38 -4.3 24.2
05:50 1010 29.83 839 24.78 9.2 48.6 40 -3.7 25.3
05:55 1010 29.83 839 24.78 8.7 47.7 41 -3.7 25.3
06:00 1010 29.83 839 24.78 8.4 47.1 42 -3.6 25.5
06:05 1010 29.83 839 24.78 8.3 46.9 43 -3.5 25.6
06:10 1010 29.83 839 24.78 7.8 46.1 46 -3.1 26.5
06:15 1010 29.83 839 24.78 7.5 45.5 47 -3.1 26.3
06:20 1010 29.83 839 24.78 7.7 45.8 44 -3.8 25.1
06:25 1010 29.83 839 24.78 8.1 46.5 41 -4.3 24.2
06:30 1010 29.83 839 24.78 8.8 47.8 40 -4.2 24.4
06:35 1009 29.8 839 24.78 9 48.1 39 -4.1 24.6
06:40 1009 29.8 839 24.78 9 48.1 40 -4 24.8
06:45 1009 29.8 838 24.75 9 48.1 36 -5.2 22.6
06:50 1009 29.8 838 24.75 9.6 49.2 36 -4.7 23.5
06:55 1009 29.8 838 24.75 9.3 48.8 39 -3.8 25.2
07:00 1009 29.8 838 24.75 8.8 47.9 39 -4.4 24.1
07:05 1009 29.8 838 24.75 9 48.1 39 -4.2 24.5
07:10 1009 29.8 838 24.75 8.9 48.1 42 -3.4 25.9
07:15 1009 29.8 838 24.75 8.7 47.6 40 -4.3 24.3
07:20 1009 29.8 838 24.75 8.6 47.5 41 -4 24.8
07:25 1009 29.8 838 24.75 8.5 47.3 39 -4.7 23.5
07:30 1009 29.8 838 24.75 8.8 47.9 38 -4.9 23.3
07:35 1009 29.8 838 24.75 9 48.1 35 -5.6 21.9
07:40 1009 29.8 838 24.75 9.4 48.9 36 -5 23
07:45 1009 29.8 838 24.75 9.4 49 35 -5.1 22.7
07:50 1009 29.8 838 24.75 9.3 48.8 36 -5.1 22.8
07:55 1009 29.8 838 24.75 9.5 49.2 35 -5.3 22.4
08:00 1009 29.8 838 24.75 9.4 48.9 36 -4.9 23.2
08:05 1009 29.8 838 24.75 8.9 47.9 41 -3.5 25.7
08:10 1009 29.8 838 24.75 7.9 46.1 42 -4.4 24.1
08:15 1009 29.8 838 24.75 8.5 47.4 38 -5.1 22.8
08:20 1009 29.8 838 24.75 9.2 48.5 36 -5 22.9
08:25 1009 29.8 838 24.75 9.2 48.5 39 -4.1 24.6
08:30 1009 29.8 838 24.75 8.2 46.8 43 -3.7 25.4
08:35 1009 29.8 838 24.75 8 46.3 42 -4.2 24.5
08:40 1009 29.8 838 24.75 8 46.3 41 -4.4 24.1
08:45 1009 29.8 838 24.75 8.1 46.6 42 -4.2 24.5
08:50 1009 29.8 838 24.75 8 46.5 43 -3.8 25.2
08:55 1009 29.8 838 24.75 7.8 46 42 -4.4 24.1
09:00 1009 29.8 838 24.75 7.9 46.3 41 -4.6 23.7
09:05 1008 29.77 838 24.75 8.2 46.8 41 -4.2 24.4
09:10 1009 29.8 838 24.75 8.1 46.7 40 -4.7 23.6
09:15 1009 29.8 838 24.75 8.3 46.9 41 -4.1 24.6
09:20 1009 29.8 838 24.75 8 46.4 42 -4.2 24.4
09:25 1009 29.8 838 24.75 7.9 46.3 43 -3.9 24.9
09:30 1009 29.8 838 24.75 7.7 45.9 42 -4.4 24.1
09:35 1008 29.77 838 24.75 8 46.4 41 -4.6 23.8
09:40 1008 29.77 838 24.75 8.4 47.1 39 -4.8 23.3
09:45 1008 29.77 838 24.75 8.6 47.4 40 -4.2 24.4
09:50 1008 29.77 838 24.75 8.5 47.2 40 -4.3 24.2
09:55 1008 29.77 838 24.75 8.3 47 41 -4.2 24.4
10:00 1008 29.77 838 24.75 8.4 47 40 -4.4 24.1
10:05 1008 29.77 838 24.75 8.2 46.8 41 -4.1 24.6
10:10 1008 29.77 837 24.72 8.1 46.6 41 -4.4 24
10:15 1008 29.77 838 24.75 8.4 47.2 40 -4.4 24
10:20 1008 29.77 838 24.75 8.5 47.4 40 -4.2 24.4
10:25 1008 29.77 838 24.75 8.4 47.2 40 -4.4 24.1
10:30 1008 29.77 838 24.75 8.5 47.3 39 -4.5 23.9
10:35 1008 29.77 838 24.75 8.6 47.4 40 -4.3 24.3
10:40 1009 29.8 838 24.75 8.5 47.4 41 -4 24.8
10:45 1009 29.8 838 24.75 8.6 47.5 40 -4.2 24.5
10:50 1009 29.8 838 24.75 8.8 47.8 38 -4.8 23.4
10:55 1009 29.8 838 24.75 9.2 48.6 37 -4.8 23.3
11:00 1009 29.8 838 24.75 9.4 48.9 36 -4.9 23.3
11:05 1009 29.8 838 24.75 9.6 49.3 33 -6 21.3
11:10 1009 29.8 838 24.75 10.2 50.3 30 -6.5 20.4
11:15 1009 29.8 838 24.75 10.5 50.8 31 -5.9 21.3
11:20 1009 29.8 838 24.75 10.5 50.9 30 -6.4 20.5
11:25 1009 29.8 838 24.75 10.6 51 30 -6.4 20.5
11:30 1008 29.77 838 24.75 10.6 51.2 29 -6.5 20.4
11:35 1008 29.77 838 24.75 10.7 51.3 29 -6.5 20.3
11:40 1008 29.77 838 24.75 10.8 51.5 29 -6.3 20.7
11:45 1008 29.77 838 24.75 10.9 51.6 30 -6.1 21
11:50 1008 29.77 838 24.75 10.9 51.6 30 -6.1 21
11:55 1008 29.77 837 24.72 10.9 51.6 30 -6.2 20.8
12:00 1008 29.77 837 24.72 11 51.9 28 -6.6 20.1
12:05 1008 29.77 837 24.72 11.2 52.1 28 -6.6 20.2
12:10 1008 29.77 837 24.72 11.2 52.1 29 -6.2 20.8
12:15 1008 29.77 837 24.72 11.2 52.1 29 -6.4 20.5
12:20 1008 29.77 837 24.72 11.2 52.2 28 -6.6 20.2
12:25 1008 29.77 837 24.72 11.2 52.2 29 -6.1 21
12:30 1008 29.77 837 24.72 11.1 51.9 29 -6.2 20.9
12:35 1008 29.77 837 24.72 11.1 52 29 -6.1 21
12:40 1007 29.74 837 24.72 11.3 52.4 28 -6.3 20.6
12:45 1007 29.74 837 24.72 11.3 52.3 29 -6 21.3
12:50 1007 29.74 837 24.72 11.3 52.3 29 -6 21.2
12:55 1007 29.74 837 24.72 11.3 52.3 30 -5.8 21.6
13:00 1007 29.74 836 24.69 11.3 52.3 28 -6.6 20.1
13:05 1007 29.74 836 24.69 11.4 52.5 30 -5.5 22.1
13:10 1007 29.74 836 24.69 11.3 52.4 29 -6.2 20.8
13:15 1007 29.74 836 24.69 11.3 52.4 30 -5.7 21.8
13:20 1007 29.74 836 24.69 11.2 52.2 29 -6 21.2
13:25 1007 29.74 836 24.69 11.4 52.5 30 -5.5 22
13:30 1007 29.74 836 24.69 11.2 52.2 31 -5.4 22.3
13:35 1007 29.74 836 24.69 11 51.8 32 -5.1 22.8
13:40 1007 29.74 836 24.69 10.9 51.5 32 -5 23
13:45 1007 29.74 836 24.69 10.6 51.2 34 -4.7 23.5
13:50 1007 29.74 836 24.69 10.5 51 33 -5.1 22.9
13:55 1007 29.74 836 24.69 10.7 51.3 33 -4.8 23.4
14:00 1006 29.71 836 24.69 10.6 51.1 33 -5 23
14:05 1006 29.71 835 24.66 10.7 51.3 33 -5 23
14:10 1006 29.71 835 24.66 10.8 51.4 34 -4.5 24
14:15 1006 29.71 835 24.66 10.7 51.3 32 -5.2 22.6
14:20 1006 29.71 835 24.66 10.8 51.4 32 -5.2 22.7
14:25 1006 29.71 835 24.66 10.7 51.2 33 -4.9 23.3
14:30 1006 29.71 835 24.66 10.5 51 34 -4.7 23.5
14:35 1006 29.71 835 24.66 10.5 50.9 34 -4.7 23.5
14:40 1006 29.71 835 24.66 10.6 51 33 -4.9 23.1
14:45 1006 29.71 835 24.66 10.6 51.2 33 -4.8 23.3
14:50 1006 29.71 835 24.66 10.8 51.5 31 -5.6 21.9
14:55 1006 29.71 835 24.66 11.2 52.1 29 -6.3 20.6
15:00 1006 29.71 835 24.66 11.3 52.4 32 -4.7 23.5
15:05 1006 29.71 835 24.66 10.9 51.7 33 -4.6 23.8
15:10 1006 29.71 835 24.66 10.7 51.3 35 -4.2 24.4
15:15 1006 29.71 835 24.66 10.6 51 35 -4.2 24.5
15:20 1006 29.71 835 24.66 10.5 50.9 36 -4.1 24.7
15:25 1005 29.68 835 24.66 10.3 50.6 36 -4 24.9
15:30 1005 29.68 835 24.66 10.3 50.6 36 -4 24.9
15:35 1005 29.68 834 24.63 10.2 50.4 37 -3.6 25.4
15:40 1005 29.68 834 24.63 10 50.1 39 -3.2 26.3
15:45 1005 29.68 834 24.63 9.7 49.5 41 -2.9 26.8
15:50 1005 29.68 834 24.63 9.8 49.6 38 -3.8 25.2
15:55 1005 29.68 834 24.63 10.2 50.3 38 -3.6 25.4
16:00 1005 29.68 834 24.63 10.3 50.5 36 -4 24.8
16:05 1005 29.68 834 24.63 10.4 50.7 37 -3.8 25.2
16:10 1004 29.65 834 24.63 10.4 50.8 37 -3.8 25.2
16:15 1004 29.65 833 24.6 10.4 50.7 37 -3.7 25.4
16:20 1004 29.65 833 24.6 10.5 50.8 37 -3.4 25.8
16:25 1004 29.65 833 24.6 10.5 50.9 37 -3.5 25.7
16:30 1004 29.65 833 24.6 10.9 51.5 36 -3.5 25.6
16:35 1004 29.65 833 24.6 11.3 52.3 36 -3.4 25.9
16:40 1004 29.65 833 24.6 11.3 52.3 37 -2.8 27
16:45 1004 29.65 833 24.6 10.6 51.2 39 -2.8 26.9
16:50 1004 29.65 833 24.6 10.4 50.7 38 -3.2 26.2
16:55 1004 29.65 833 24.6 10.4 50.6 38 -3.2 26.2
17:00 1004 29.65 833 24.6 10.3 50.5 39 -3.1 26.4
17:05 1004 29.65 833 24.6 10.3 50.6 34 -4.9 23.3
17:10 1004 29.65 833 24.6 10.6 51.1 36 -3.8 25.1
17:15 1004 29.65 833 24.6 10.5 50.9 37 -3.6 25.5
17:20 1004 29.65 833 24.6 10.3 50.6 38 -3.2 26.3
17:25 1004 29.65 833 24.6 10 50 40 -3 26.7
17:30 1004 29.65 833 24.6 9.7 49.4 39 -3.6 25.6
17:35 1003 29.62 833 24.6 9.7 49.4 40 -3.4 25.8
17:40 1003 29.62 833 24.6 9.6 49.2 40 -3.5 25.7
17:45 1003 29.62 833 24.6 9.6 49.2 39 -3.7 25.3
17:50 1003 29.62 833 24.6 9.6 49.2 39 -3.6 25.6
17:55 1003 29.62 833 24.6 9.5 49 37 -4.5 23.9
18:00 1003 29.62 833 24.6 9.7 49.5 35 -4.9 23.2
18:05 1003 29.62 833 24.6 10 50 34 -5.1 22.9
18:10 1003 29.62 832 24.57 10 50 35 -4.8 23.3
18:15 1003 29.62 832 24.57 10 49.9 35 -4.7 23.6
18:20 1003 29.62 832 24.57 10 50 31 -6.2 20.8
18:25 1003 29.62 832 24.57 10.3 50.5 30 -6.5 20.2
18:30 1003 29.62 832 24.57 10.2 50.4 30 -6.5 20.4
18:35 1003 29.62 832 24.57 9.8 49.6 31 -6.4 20.6
18:40 1003 29.62 832 24.57 9.4 49 32 -6.4 20.5
18:45 1003 29.62 832 24.57 9.3 48.8 32 -6.7 19.9
18:50 1003 29.62 832 24.57 9.4 48.9 30 -7.2 19
18:55 1003 29.62 832 24.57 9.5 49.1 30 -7.3 18.9
19:00 1003 29.62 832 24.57 9.6 49.3 28 -7.8 17.9
19:05 1003 29.62 832 24.57 9.7 49.5 29 -7.4 18.6
19:10 1002 29.59 832 24.57 9.6 49.2 29 -7.6 18.3
19:15 1002 29.59 832 24.57 9.5 49 28 -8.3 17.1
19:20 1002 29.59 831 24.54 9.6 49.4 28 -8.2 17.3
19:25 1002 29.59 832 24.57 9.7 49.4 27 -8.4 16.9
19:30 1002 29.59 831 24.54 9.7 49.4 25 -9.2 15.4
19:35 1002 29.59 831 24.54 10 50.1 24 -9.7 14.6
19:40 1002 29.59 831 24.54 10.3 50.6 24 -9.4 15
19:45 1002 29.59 831 24.54 10.1 50.1 25 -8.8 16.1
19:50 1002 29.59 831 24.54 9.8 49.6 24 -9.7 14.6
19:55 1002 29.59 831 24.54 10.2 50.4 22 -10.3 13.4
20:00 1002 29.59 831 24.54 10.5 50.9 23 -9.9 14.3
20:05 1002 29.59 831 24.54 10.4 50.6 23 -10 13.9
20:10 1002 29.59 831 24.54 10.5 50.8 21 -11 12.2
20:15 1002 29.59 831 24.54 10.7 51.2 19 -11.9 10.6
20:20 1001 29.56 831 24.54 10.9 51.6 20 -11.5 11.4
20:25 1001 29.56 831 24.54 10.7 51.3 20 -11.2 11.8
20:30 1001 29.56 830 24.51 10.6 51.1 19 -12 10.4
20:35 1001 29.56 830 24.51 10.8 51.4 19 -12.3 9.9
20:40 1001 29.56 831 24.54 10.5 51 20 -11.7 10.9
20:45 1001 29.56 831 24.54 10.5 50.8 19 -12.1 10.3
20:50 1001 29.56 831 24.54 10.5 50.9 20 -11.3 11.6
20:55 1001 29.56 830 24.51 10.5 50.9 18 -12.6 9.4
21:00 1001 29.56 830 24.51 10.7 51.3 20 -11.6 11.2
21:05 1001 29.56 830 24.51 10.5 50.9 21 -10.8 12.6
21:10 1001 29.56 831 24.54 10.2 50.3 22 -10.7 12.7
21:15 1001 29.56 831 24.54 9.9 49.8 23 -10.5 13
21:20 1001 29.56 830 24.51 9.7 49.4 23 -10.3 13.5
21:25 1001 29.56 830 24.51 9.4 48.9 24 -10 14
21:30 1001 29.56 831 24.54 9.1 48.3 25 -9.9 14.2
21:35 1001 29.56 830 24.51 8.8 47.8 26 -9.9 14.1
21:40 1001 29.56 830 24.51 8.5 47.4 25 -10.3 13.4
21:45 1001 29.56 830 24.51 8.6 47.4 25 -10.4 13.3
21:50 1001 29.56 830 24.51 8.6 47.4 24 -10.7 12.7
21:55 1001 29.56 830 24.51 8.6 47.5 24 -10.6 12.9
22:00 1001 29.56 830 24.51 8.4 47 25 -10.5 13.1
22:05 1001 29.56 830 24.51 8.2 46.8 24 -11.1 12
22:10 1001 29.56 830 24.51 9.1 48.3 21 -12.2 10
22:15 1001 29.56 830 24.51 10 50 20 -12 10.4
22:20 1001 29.56 830 24.51 10.2 50.3 21 -11.3 11.7
22:25 1001 29.56 830 24.51 10 50.1 22 -10.8 12.6
22:30 1001 29.56 830 24.51 9.9 49.8 23 -10.3 13.4
22:35 1001 29.56 830 24.51 9.8 49.6 21 -11.3 11.7
22:40 1001 29.56 830 24.51 9.8 49.6 22 -11.1 12.1
22:45 1001 29.56 830 24.51 9.7 49.5 22 -10.8 12.5
22:50 1000 29.53 830 24.51 9.5 49.1 24 -10.4 13.4
22:55 1000 29.53 830 24.51 9.3 48.7 24 -10.4 13.2
23:00 1000 29.53 830 24.51 9.2 48.5 24 -10.3 13.5
23:05 1000 29.53 830 24.51 9 48.2 23 -10.8 12.5
23:10 1000 29.53 830 24.51 9.2 48.5 24 -10.4 13.2
23:15 1000 29.53 830 24.51 8.8 47.8 23 -11 12.1
23:20 1000 29.53 830 24.51 9 48.2 22 -11.5 11.4
23:25 1001 29.56 830 24.51 9.5 49.2 21 -11.9 10.6
23:30 1001 29.56 830 24.51 9.6 49.2 22 -11.3 11.7
23:35 1001 29.56 830 24.51 9.2 48.5 23 -11 12.2
23:40 1000 29.53 830 24.51 9 48.2 22 -11.4 11.5
23:45 1000 29.53 830 24.51 9.2 48.5 23 -11.1 12
23:50 1000 29.53 830 24.51 9.2 48.6 23 -10.8 12.5
23:55 1000 29.53 830 24.51 9.5 49.2 23 -10.9 12.5
24:00 1000 29.53 830 24.51 9.8 49.6 22 -11 12.2